Bogue Chitto, Mississippi
Current Conditions -  °F | °C
As of 4:55 PM on Thursday 20 Nov 2014 (Local Time) from K1R7 Reporting Station
Broken Clouds Broken Clouds  
Wind Chill: 63°   Ceiling: 5000
Heat Index: 63°   Visibility: 10mi
Dew Point: 50°   Wind: 0mph
Humidity: 63%   Direction: NA
Pressure: 30.19"   Gusts: NA
Location:  31.44°N, 90.45°W
Report Text: K1R7 202255Z AUTO 00000KT 10SM BKN050 BKN060 BKN075 17/10 A3019 RMK AO2
Loading
Personal Weather Stations






























Interactive Weather Map New forecast layout! Learn more

10-Day Weather Forecast

Advertisements
Track Severe Weather on mobile